createdAt,value
2023-03-23T16:01:28.829Z,12.60
2023-03-23T16:06:34.245Z,15.70
2023-03-23T16:11:38.262Z,15.60
2023-03-23T16:17:26.803Z,15.30
2023-03-23T16:22:29.337Z,15.40
2023-03-23T16:27:33.008Z,15.20
2023-03-23T16:37:37.888Z,14.60
2023-03-23T16:42:40.442Z,14.50
2023-03-23T16:47:43.943Z,14.50
2023-03-23T16:52:48.067Z,14.40
2023-03-23T16:57:50.546Z,14.30
2023-03-23T17:02:56.939Z,14.20
2023-03-23T17:07:59.412Z,14.00
2023-03-23T17:13:02.020Z,14.00
2023-03-23T17:18:06.013Z,13.90
2023-03-23T17:23:08.707Z,13.90
2023-03-23T17:28:11.393Z,13.80
2023-03-23T17:33:14.227Z,13.80
2023-03-23T17:38:17.904Z,13.80
2023-03-23T17:43:20.634Z,13.70
2023-03-23T17:48:23.453Z,13.60
2023-03-23T17:53:26.847Z,13.50
2023-03-23T17:58:29.521Z,13.60
2023-03-23T18:03:32.257Z,13.70
2023-03-23T18:08:36.130Z,13.50
2023-03-23T18:13:39.295Z,13.50
2023-03-23T18:18:41.802Z,13.30
2023-03-23T18:23:56.667Z,13.30
2023-03-23T18:29:01.677Z,13.10
2023-03-23T18:34:04.132Z,13.10
2023-03-23T18:39:06.673Z,12.90
2023-03-23T18:44:09.274Z,12.90
2023-03-23T18:49:12.017Z,12.80
2023-03-23T18:54:14.828Z,12.60
2023-03-23T18:59:17.564Z,12.70
2023-03-23T19:04:22.443Z,12.60
2023-03-23T19:09:25.156Z,12.50
2023-03-23T19:14:27.780Z,12.20
2023-03-23T19:19:30.729Z,12.20
2023-03-23T19:24:33.719Z,11.90
2023-03-23T19:29:36.485Z,12.00
2023-03-23T19:34:39.561Z,12.20
2023-03-23T19:39:43.042Z,12.30
2023-03-23T19:44:45.784Z,12.20
2023-03-23T19:49:48.341Z,12.30
2023-03-23T19:54:55.298Z,12.60
2023-03-23T19:59:59.241Z,13.00
2023-03-23T20:05:01.860Z,13.00
2023-03-23T20:10:06.172Z,13.20
2023-03-23T20:15:09.132Z,13.40
2023-03-23T20:20:12.103Z,13.40
2023-03-23T20:25:15.140Z,13.50
2023-03-23T20:30:18.850Z,13.50
2023-03-23T20:35:22.510Z,13.50
2023-03-23T20:40:24.979Z,14.00
2023-03-23T20:45:27.504Z,13.50
2023-03-23T20:50:30.338Z,13.40
2023-03-23T20:55:33.222Z,13.20
2023-03-23T21:00:35.794Z,12.90
2023-03-23T21:05:41.741Z,12.90
2023-03-23T21:10:46.124Z,12.70
2023-03-23T21:15:49.002Z,12.40
2023-03-23T21:20:52.509Z,12.10
2023-03-23T21:31:02.356Z,11.70
2023-03-23T21:36:05.063Z,11.30
2023-03-23T21:41:10.733Z,11.10
2023-03-23T21:46:18.269Z,10.80
2023-03-23T21:51:25.050Z,10.80
2023-03-23T21:56:28.669Z,10.80
2023-03-23T22:01:31.386Z,10.70
2023-03-23T22:06:34.595Z,10.70
2023-03-23T22:11:38.592Z,10.50
2023-03-23T22:16:41.349Z,10.50
2023-03-23T22:21:43.869Z,10.40
2023-03-23T22:26:46.919Z,10.40
2023-03-23T22:31:50.507Z,10.60
2023-03-23T22:36:53.127Z,10.60
2023-03-23T22:41:55.612Z,10.40
2023-03-23T22:46:58.334Z,10.40
2023-03-23T22:52:00.885Z,10.40
2023-03-23T22:57:03.563Z,10.10
2023-03-23T23:02:06.302Z,10.10
2023-03-23T23:07:14.354Z,10.00
2023-03-23T23:12:18.285Z,9.90
2023-03-23T23:17:20.745Z,9.80
2023-03-23T23:22:23.323Z,9.80
2023-03-23T23:27:26.032Z,9.70
2023-03-23T23:32:29.222Z,9.50
2023-03-23T23:37:32.174Z,9.40
2023-03-23T23:42:36.023Z,9.30
2023-03-23T23:47:39.548Z,9.10
2023-03-23T23:52:42.727Z,8.90
2023-03-23T23:57:46.682Z,8.70
